Time;durP1;ratioP1;P1;durP2;ratioP2;P2;SDS_P1;SDS_P2;PMS_P1;PMS_P2;Temp;Humidity;BMP_temperature;BMP_pressure;BME280_temperature;BME280_humidity;BME280_pressure;Samples;Min_cycle;Max_cycle;Signal;HPM_P1;HPM_P2
2021/06/10 00:00:23;;;;;;;9.08;4.85;;;;;;;16.25;70.20;98959.39;1777659;80;21012;-93
2021/06/10 00:02:52;;;;;;;11.38;4.95;;;;;;;16.19;68.61;98961.02;1725019;79;21150;-94
2021/06/10 00:05:22;;;;;;;10.05;4.53;;;;;;;16.10;70.50;98968.42;1729563;80;21530;-94
2021/06/10 00:07:50;;;;;;;8.68;4.65;;;;;;;16.05;69.68;98966.48;1689001;81;21083;-95
2021/06/10 00:10:21;;;;;;;8.33;4.60;;;;;;;15.99;69.55;98966.78;1747577;81;21622;-93
2021/06/10 00:12:49;;;;;;;14.03;4.50;;;;;;;15.94;70.23;98967.97;1785902;80;21144;-93
2021/06/10 00:15:24;;;;;;;10.00;4.55;;;;;;;15.90;72.21;98973.34;1808478;78;21171;-93
2021/06/10 00:17:53;;;;;;;10.53;4.72;;;;;;;15.90;70.90;98975.13;1791608;78;21114;-92
2021/06/10 00:20:26;;;;;;;12.15;5.53;;;;;;;15.91;72.39;98975.49;1772026;80;21768;-93
2021/06/10 00:22:54;;;;;;;9.23;4.12;;;;;;;15.92;72.43;98978.52;1742052;81;21146;-92
2021/06/10 00:28:16;;;;;;;9.48;5.00;;;;;;;15.91;71.63;98968.94;1727245;83;21095;-90
2021/06/10 00:30:43;;;;;;;10.05;5.22;;;;;;;15.88;72.07;98967.80;1747309;81;21106;-95
2021/06/10 00:33:10;;;;;;;11.70;4.90;;;;;;;15.89;73.62;98974.72;1731019;83;21059;-94
2021/06/10 00:35:38;;;;;;;8.95;4.58;;;;;;;15.89;72.50;98969.01;1730973;83;21074;-95
2021/06/10 00:38:05;;;;;;;9.40;4.97;;;;;;;15.88;72.32;98969.11;1710479;80;21115;-95
2021/06/10 00:40:36;;;;;;;18.15;5.70;;;;;;;15.84;73.51;98969.71;1709871;81;21911;-93
2021/06/10 00:43:05;;;;;;;11.45;5.10;;;;;;;15.80;76.03;98973.41;1710721;81;21143;-95
2021/06/10 00:45:32;;;;;;;12.28;5.75;;;;;;;15.74;71.82;98981.56;1701720;80;21082;-92
2021/06/10 00:47:59;;;;;;;8.03;5.45;;;;;;;15.48;71.63;98950.88;1795774;78;21073;-93
2021/06/10 00:50:40;;;;;;;9.83;5.60;;;;;;;15.61;73.24;98970.78;1808922;79;21044;-93
2021/06/10 00:53:20;;;;;;;9.25;5.67;;;;;;;15.60;75.41;98966.94;1723877;79;21972;-92
2021/06/10 00:56:08;;;;;;;10.53;5.33;;;;;;;15.58;72.73;98961.77;1710603;83;21125;-94
2021/06/10 00:58:33;;;;;;;8.20;5.53;;;;;;;15.54;73.77;98959.34;1728848;79;21646;-93
2021/06/10 01:01:01;;;;;;;9.28;5.40;;;;;;;15.50;74.97;98969.98;1738639;80;21085;-95
2021/06/10 01:03:29;;;;;;;13.20;5.75;;;;;;;15.44;74.60;98962.89;1764254;80;21078;-95
2021/06/10 01:06:01;;;;;;;13.32;5.40;;;;;;;15.38;74.78;98971.00;1768420;80;21059;-93
2021/06/10 01:08:52;;;;;;;9.43;5.27;;;;;;;15.31;74.98;98967.36;1685117;80;21095;-94
2021/06/10 01:11:43;;;;;;;8.93;4.62;;;;;;;15.26;74.68;98969.80;1665037;80;21128;-93
2021/06/10 01:15:10;;;;;;;7.00;4.50;;;;;;;15.17;74.37;98974.17;1755006;81;21164;-96
2021/06/10 01:18:03;;;;;;;13.10;5.17;;;;;;;15.09;74.22;98966.67;1814424;78;21074;-95
2021/06/10 01:20:34;;;;;;;9.60;5.05;;;;;;;15.05;73.58;98961.18;1755259;80;21051;-93
2021/06/10 01:23:29;;;;;;;11.53;5.25;;;;;;;14.97;78.04;98958.91;1774630;80;21129;-94
2021/06/10 01:26:29;;;;;;;8.45;4.90;;;;;;;14.93;78.30;98963.05;1727431;83;21075;-94
2021/06/10 01:29:01;;;;;;;13.45;5.28;;;;;;;14.89;77.13;98966.27;1669195;80;21136;-94
2021/06/10 01:31:28;;;;;;;9.75;4.80;;;;;;;14.86;77.88;98965.07;1727621;81;21166;-94
2021/06/10 01:34:02;;;;;;;10.50;4.97;;;;;;;14.86;77.21;98959.41;1754631;81;21102;-94
2021/06/10 01:39:25;;;;;;;9.85;4.85;;;;;;;14.91;78.10;98956.57;1742562;82;21103;-94
2021/06/10 01:41:55;;;;;;;;;;;;;;;14.91;76.68;98957.41;1697188;81;21092;-94
2021/06/10 01:47:20;;;;;;;9.28;4.58;;;;;;;14.89;77.34;98950.55;1719013;83;21091;-94
2021/06/10 01:49:49;;;;;;;13.00;5.60;;;;;;;14.87;75.57;98949.31;1697973;82;21126;-93
2021/06/10 01:52:20;;;;;;;7.28;4.08;;;;;;;14.84;75.44;98951.20;1717283;82;21235;-94
2021/06/10 01:54:48;;;;;;;9.63;4.67;;;;;;;14.76;76.02;98950.70;1739143;81;21199;-92
2021/06/10 01:57:15;;;;;;;9.98;5.08;;;;;;;14.69;76.20;98946.21;1716762;82;21142;-93
2021/06/10 01:59:44;;;;;;;10.68;4.72;;;;;;;14.63;77.07;98947.80;1691731;82;21203;-95
2021/06/10 02:02:15;;;;;;;7.37;4.75;;;;;;;14.61;76.26;98949.63;1676453;83;21661;-93
2021/06/10 02:04:43;;;;;;;11.08;5.05;;;;;;;14.57;77.81;98948.06;1665229;81;22000;-96
2021/06/10 02:07:10;;;;;;;12.33;6.17;;;;;;;14.51;75.55;98949.14;1714618;83;21102;-93
2021/06/10 02:09:37;;;;;;;10.82;4.97;;;;;;;14.47;76.15;98952.34;1732281;81;21166;-95
2021/06/10 02:12:07;;;;;;;9.53;4.75;;;;;;;14.45;76.05;98952.88;1746617;82;21011;-94
2021/06/10 02:14:55;;;;;;;9.08;4.65;;;;;;;14.42;76.15;98957.37;1674638;83;21188;-95
2021/06/10 02:17:22;;;;;;;11.30;5.03;;;;;;;14.40;77.16;98965.28;1672873;85;21051;-95
2021/06/10 02:19:49;;;;;;;10.08;5.33;;;;;;;14.39;79.80;98972.75;1672628;86;21071;-93
2021/06/10 02:22:18;;;;;;;18.98;8.90;;;;;;;14.40;77.27;98973.59;1724261;80;21136;-92
2021/06/10 02:27:32;;;;;;;22.75;10.60;;;;;;;14.35;77.78;98980.34;1639622;88;21076;-94
2021/06/10 02:29:59;;;;;;;15.53;7.65;;;;;;;14.32;79.68;98980.02;1679882;83;21186;-93
2021/06/10 02:32:26;;;;;;;15.15;6.78;;;;;;;14.28;78.37;98987.61;1728760;83;21000;-93
2021/06/10 02:34:52;;;;;;;11.12;6.03;;;;;;;14.26;78.71;98987.25;1772360;81;21118;-93
2021/06/10 02:37:22;;;;;;;8.48;5.03;;;;;;;14.25;77.27;98992.95;1772219;81;21050;-92
2021/06/10 02:39:52;;;;;;;9.83;4.80;;;;;;;14.22;79.15;98989.60;1765288;78;21107;-93
2021/06/10 02:48:31;;;;;;;14.35;4.08;;;;;;;14.15;77.86;98990.33;1755471;80;21136;-95
2021/06/10 02:50:59;;;;;;;8.30;3.92;;;;;;;14.16;77.21;98984.63;1745113;80;21138;-94
2021/06/10 02:53:32;;;;;;;6.97;4.00;;;;;;;14.14;76.32;98987.30;1750856;82;21127;-95
2021/06/10 02:58:57;;;;;;;8.20;4.72;;;;;;;14.17;77.42;98988.96;1736738;78;21107;-93
2021/06/10 03:01:42;;;;;;;;;;;;;;;;;;;;;
2021/06/10 03:04:15;;;;;;;7.92;4.28;;;;;;;14.23;79.46;98988.24;1714044;84;21503;-94
2021/06/10 03:06:44;;;;;;;10.80;4.60;;;;;;;14.24;78.77;98982.08;1795860;80;21154;-93
2021/06/10 03:09:15;;;;;;;10.32;5.10;;;;;;;14.24;79.26;98995.62;1771239;79;21086;-94
2021/06/10 03:11:44;;;;;;;6.90;4.80;;;;;;;14.25;79.08;98988.19;1772297;78;21023;-88
2021/06/10 03:14:14;;;;;;;8.63;4.53;;;;;;;14.30;80.03;98989.70;1832845;78;21019;-92
2021/06/10 03:16:47;;;;;;;12.35;6.65;;;;;;;14.29;78.49;98984.52;1743418;79;21099;-95
2021/06/10 03:19:33;;;;;;;11.28;5.55;;;;;;;14.31;78.08;98985.30;1729816;83;21078;-93
2021/06/10 03:22:00;;;;;;;13.60;5.97;;;;;;;14.28;77.77;98990.66;1729691;83;21554;-95
2021/06/10 03:24:27;;;;;;;11.93;5.75;;;;;;;14.26;77.90;98988.09;1729608;83;21046;-96
2021/06/10 03:26:56;;;;;;;13.72;5.80;;;;;;;14.10;78.03;98960.43;1729669;83;21059;-95
2021/06/10 03:29:22;;;;;;;12.37;5.53;;;;;;;14.31;78.13;98981.38;1726173;81;21151;-94
2021/06/10 03:31:50;;;;;;;11.05;5.47;;;;;;;14.32;77.30;98981.33;1741353;82;21056;-93
2021/06/10 03:34:18;;;;;;;11.90;5.28;;;;;;;14.36;77.50;98983.33;1651868;80;21140;-93
2021/06/10 03:36:47;;;;;;;10.43;5.08;;;;;;;14.40;77.64;98984.05;1658971;83;21114;-96
2021/06/10 03:39:40;;;;;;;12.35;5.50;;;;;;;14.41;76.09;98989.23;1731919;81;21144;-93
2021/06/10 03:42:08;;;;;;;14.47;5.53;;;;;;;14.19;77.24;98954.45;1731224;83;21197;-94
2021/06/10 03:44:35;;;;;;;7.55;4.60;;;;;;;14.45;77.65;98992.11;1748332;79;21593;-95
2021/06/10 03:47:02;;;;;;;9.70;4.60;;;;;;;14.48;76.37;98994.61;1716876;78;21135;-94
2021/06/10 03:49:34;;;;;;;8.58;4.62;;;;;;;14.49;77.54;98989.75;1715182;83;21108;-94
2021/06/10 03:52:00;;;;;;;8.40;4.28;;;;;;;14.53;76.88;98993.94;1691058;81;21213;-92
2021/06/10 03:54:26;;;;;;;7.75;4.03;;;;;;;14.58;76.92;98992.45;1668521;86;21550;-95
2021/06/10 03:56:53;;;;;;;10.28;4.40;;;;;;;14.64;76.88;98990.91;1669446;85;21070;-95
2021/06/10 03:59:19;;;;;;;8.65;4.53;;;;;;;14.68;76.83;98995.09;1678398;85;21093;-95
2021/06/10 04:01:46;;;;;;;8.80;4.90;;;;;;;14.76;76.99;98993.88;1668239;85;21020;-93
2021/06/10 04:04:12;;;;;;;11.68;4.75;;;;;;;14.80;78.66;98994.14;1668174;86;21555;-92
2021/06/10 04:06:39;;;;;;;11.83;5.10;;;;;;;14.85;77.45;98999.56;1668032;85;21062;-94
2021/06/10 04:09:08;;;;;;;16.87;5.25;;;;;;;14.88;79.45;98993.34;1668162;86;21054;-93
2021/06/10 04:11:40;;;;;;;10.40;5.45;;;;;;;14.93;78.21;98989.23;1760570;81;21126;-86
2021/06/10 04:14:07;;;;;;;7.40;4.55;;;;;;;14.97;77.37;98988.17;1768010;81;21074;-87
2021/06/10 04:16:34;;;;;;;10.40;5.22;;;;;;;15.03;78.29;98983.97;1767452;79;21051;-93
2021/06/10 04:19:00;;;;;;;7.83;4.87;;;;;;;15.12;77.44;98980.94;1767459;81;21079;-95
2021/06/10 04:21:27;;;;;;;14.33;5.40;;;;;;;15.18;79.01;98987.20;1767108;81;21589;-95
2021/06/10 04:23:54;;;;;;;11.43;5.22;;;;;;;15.24;77.53;98992.16;1767028;81;21129;-93
2021/06/10 04:26:21;;;;;;;10.30;4.95;;;;;;;15.31;77.27;98992.25;1767061;81;21043;-93
2021/06/10 04:28:48;;;;;;;8.10;5.00;;;;;;;15.39;77.41;98994.98;1678258;81;21172;-94
2021/06/10 04:31:19;;;;;;;12.45;5.78;;;;;;;15.44;76.87;98994.33;1751486;80;21424;-94
2021/06/10 04:36:41;;;;;;;7.85;5.00;;;;;;;15.54;76.60;98989.47;1754193;82;21542;-92
2021/06/10 04:39:08;;;;;;;14.33;5.78;;;;;;;15.64;76.52;98981.13;1754232;82;21069;-93
2021/06/10 04:41:35;;;;;;;11.10;5.33;;;;;;;15.74;76.02;98982.88;1754061;82;21063;-94
2021/06/10 04:44:01;;;;;;;15.32;5.37;;;;;;;15.78;75.68;98977.03;1757541;80;21046;-93
2021/06/10 04:46:28;;;;;;;7.30;5.40;;;;;;;15.83;75.63;98978.95;1754974;82;21515;-93
2021/06/10 04:48:56;;;;;;;16.05;5.95;;;;;;;15.92;75.41;98981.14;1710014;83;21071;-92
2021/06/10 04:51:25;;;;;;;10.03;5.60;;;;;;;16.02;75.01;98970.58;1712743;80;21151;-93
2021/06/10 04:53:58;;;;;;;9.60;5.12;;;;;;;16.11;75.05;98975.83;1713920;81;21139;-95
2021/06/10 04:56:41;;;;;;;12.90;5.35;;;;;;;16.21;74.41;98973.59;1712255;81;21142;-95
2021/06/10 04:59:08;;;;;;;13.22;5.55;;;;;;;16.29;74.33;98967.49;1732869;83;21039;-95
2021/06/10 05:01:36;;;;;;;12.58;5.95;;;;;;;16.33;74.01;98972.97;1719346;80;21039;-94
2021/06/10 05:04:03;;;;;;;13.53;5.97;;;;;;;16.36;74.23;98971.52;1673472;83;21135;-93
2021/06/10 05:06:30;;;;;;;13.78;6.28;;;;;;;16.43;73.27;98973.35;1723410;83;21920;-94
2021/06/10 05:08:57;;;;;;;15.15;5.67;;;;;;;16.47;73.26;98974.89;1723996;83;21120;-94
2021/06/10 05:11:24;;;;;;;14.30;5.37;;;;;;;16.56;73.34;98965.72;1723313;83;21059;-95
2021/06/10 05:13:51;;;;;;;10.98;5.75;;;;;;;16.47;73.02;98938.16;1740271;81;21114;-92
2021/06/10 05:16:19;;;;;;;12.00;5.40;;;;;;;16.73;72.54;98964.35;1730844;81;21011;-94
2021/06/10 05:18:46;;;;;;;10.30;5.78;;;;;;;16.81;73.48;98967.48;1736215;81;21011;-93
2021/06/10 05:21:13;;;;;;;10.53;5.08;;;;;;;16.87;72.44;98965.84;1721354;80;21113;-93
2021/06/10 05:23:41;;;;;;;9.73;5.60;;;;;;;16.90;72.65;98966.98;1686148;85;21067;-92
2021/06/10 05:26:08;;;;;;;9.68;5.22;;;;;;;16.99;72.64;98966.97;1716831;80;21634;-94
2021/06/10 05:28:35;;;;;;;9.93;5.17;;;;;;;17.07;73.03;98963.94;1759253;81;20983;-93
2021/06/10 05:31:08;;;;;;;12.33;4.90;;;;;;;17.11;72.79;98966.78;1754337;82;21013;-94
2021/06/10 05:33:38;;;;;;;9.90;4.87;;;;;;;17.26;72.54;98974.28;1723651;80;21118;-92
2021/06/10 05:36:05;;;;;;;10.35;5.37;;;;;;;17.35;71.93;98976.41;1770670;78;21058;-93
2021/06/10 05:38:33;;;;;;;9.75;4.87;;;;;;;17.50;72.13;98968.98;1725919;81;21025;-91
2021/06/10 05:41:00;;;;;;;8.25;5.40;;;;;;;17.64;71.77;98980.04;1771953;81;21069;-89
2021/06/10 05:43:29;;;;;;;8.28;5.30;;;;;;;17.76;71.59;98976.35;1733855;81;21031;-89
2021/06/10 05:46:00;;;;;;;10.78;5.72;;;;;;;17.82;70.94;98974.21;1730157;83;21147;-90
2021/06/10 05:48:28;;;;;;;11.40;5.22;;;;;;;17.83;71.13;98975.95;1702120;83;21104;-89
2021/06/10 05:50:58;;;;;;;8.33;5.42;;;;;;;17.95;70.68;98980.14;1702623;83;21042;-89
2021/06/10 05:53:30;;;;;;;8.65;5.92;;;;;;;18.03;70.38;98976.12;1679233;83;21075;-89
2021/06/10 05:56:30;;;;;;;11.70;6.42;;;;;;;18.12;70.33;98973.89;1702206;83;21169;-88
2021/06/10 05:58:57;;;;;;;13.20;5.62;;;;;;;18.24;70.35;98975.81;1701408;83;21054;-88
2021/06/10 06:01:24;;;;;;;11.05;6.08;;;;;;;18.39;69.64;98977.55;1699265;83;21024;-85
2021/06/10 06:03:51;;;;;;;10.65;6.40;;;;;;;18.52;69.36;98970.23;1729283;82;21100;-86
2021/06/10 06:06:19;;;;;;;15.10;7.20;;;;;;;18.60;69.00;98970.61;1720091;82;21026;-85
2021/06/10 06:08:46;;;;;;;13.75;6.67;;;;;;;18.64;68.60;98974.31;1728125;83;21049;-82
2021/06/10 06:11:13;;;;;;;12.37;6.28;;;;;;;18.74;68.80;98969.34;1733850;82;21038;-81
2021/06/10 06:13:47;;;;;;;12.23;6.75;;;;;;;18.83;68.44;98966.63;1730772;82;21050;-81
2021/06/10 06:16:18;;;;;;;16.87;7.35;;;;;;;18.93;67.69;98969.55;1727823;81;21014;-82
2021/06/10 06:18:50;;;;;;;133.25;72.58;;;;;;;19.06;67.83;98975.77;1721795;82;21078;-80
2021/06/10 06:21:17;;;;;;;14.90;8.50;;;;;;;19.19;67.49;98970.09;1726295;81;21006;-81
2021/06/10 06:23:44;;;;;;;11.63;7.35;;;;;;;19.31;67.12;98974.23;1711245;83;21102;-85
2021/06/10 06:26:11;;;;;;;9.73;6.58;;;;;;;19.44;67.01;98977.79;1748350;80;21037;-80
2021/06/10 06:28:42;;;;;;;13.65;7.25;;;;;;;19.55;66.84;98975.30;1763396;80;21517;-81
2021/06/10 06:31:09;;;;;;;14.80;7.37;;;;;;;19.60;66.05;98977.18;1787188;80;21026;-80
2021/06/10 06:33:37;;;;;;;13.22;7.25;;;;;;;19.68;65.87;98980.64;1765120;80;21033;-80
2021/06/10 06:36:05;;;;;;;16.45;7.45;;;;;;;19.79;64.94;98986.56;1764748;78;21082;-79
2021/06/10 06:38:31;;;;;;;14.33;7.60;;;;;;;19.90;63.92;98981.45;1780419;78;21024;-79
2021/06/10 06:40:58;;;;;;;10.50;6.75;;;;;;;20.02;64.07;98985.91;1777315;80;20959;-79
2021/06/10 06:43:28;;;;;;;12.55;6.65;;;;;;;20.13;63.37;98987.83;1782055;80;20983;-78
2021/06/10 06:45:53;;;;;;;11.43;6.95;;;;;;;20.18;63.16;98982.27;1772721;78;20967;-80
2021/06/10 06:48:21;;;;;;;10.78;6.90;;;;;;;20.21;62.62;98983.37;1754718;81;21038;-80
2021/06/10 06:50:47;;;;;;;15.28;7.08;;;;;;;20.28;62.85;98974.59;1753643;81;21011;-79
2021/06/10 06:53:14;;;;;;;12.33;6.53;;;;;;;20.32;62.66;98984.83;1775164;78;21058;-79
2021/06/10 06:55:41;;;;;;;10.28;6.33;;;;;;;20.41;62.56;98984.22;1783661;78;21436;-78
2021/06/10 06:58:08;;;;;;;12.58;6.30;;;;;;;20.53;62.47;98984.31;1777518;79;21126;-80
2021/06/10 07:00:35;;;;;;;15.40;6.10;;;;;;;20.69;62.65;98985.47;1771452;80;20998;-78
2021/06/10 07:03:01;;;;;;;10.32;6.05;;;;;;;20.82;61.74;98980.56;1785233;79;21118;-84
2021/06/10 07:05:28;;;;;;;10.13;5.92;;;;;;;20.96;61.58;98984.05;1780697;80;20962;-87
2021/06/10 07:07:54;;;;;;;8.98;5.08;;;;;;;21.08;59.44;98975.74;1792570;80;21053;-90
2021/06/10 07:10:21;;;;;;;9.25;4.40;;;;;;;21.26;59.00;98986.33;1764854;79;21007;-88
2021/06/10 07:12:48;;;;;;;7.17;4.97;;;;;;;21.45;57.92;98985.91;1767941;80;20955;-88
2021/06/10 07:15:15;;;;;;;8.93;4.45;;;;;;;21.62;56.31;98988.64;1781157;80;21003;-86
2021/06/10 07:17:42;;;;;;;8.55;3.92;;;;;;;21.78;58.24;98986.56;1779477;78;21015;-74
2021/06/10 07:20:10;;;;;;;6.15;3.87;;;;;;;21.86;56.02;98988.66;1783508;79;21019;-78
2021/06/10 07:22:39;;;;;;;7.28;3.70;;;;;;;21.89;55.88;98989.77;1783086;78;21016;-78
2021/06/10 07:25:08;;;;;;;7.28;4.50;;;;;;;21.93;54.00;98983.28;1764304;80;21015;-78
2021/06/10 07:27:35;;;;;;;7.65;4.17;;;;;;;22.00;54.90;98983.66;1769476;79;21101;-78
2021/06/10 07:30:04;;;;;;;7.35;4.10;;;;;;;22.07;55.29;98979.62;1783093;78;21026;-82
2021/06/10 07:32:31;;;;;;;9.73;4.17;;;;;;;22.14;53.62;98983.97;1761974;80;21070;-77
2021/06/10 07:34:58;;;;;;;9.58;4.25;;;;;;;22.22;55.35;98972.31;1779796;78;20999;-77
2021/06/10 07:37:25;;;;;;;7.60;4.62;;;;;;;22.23;54.46;98981.97;1749706;80;21542;-76
2021/06/10 07:39:51;;;;;;;10.43;4.25;;;;;;;22.26;55.33;98972.97;1773484;79;21076;-76
2021/06/10 07:42:18;;;;;;;9.35;4.12;;;;;;;22.37;54.78;98975.17;1774524;79;21034;-76
2021/06/10 07:44:45;;;;;;;5.78;3.95;;;;;;;22.49;55.57;98972.56;1772281;80;21061;-76
2021/06/10 07:47:11;;;;;;;14.45;4.20;;;;;;;22.56;53.30;98971.11;1776800;80;21479;-76
2021/06/10 07:49:39;;;;;;;7.10;3.90;;;;;;;22.60;54.54;98970.78;1745023;80;21011;-76
2021/06/10 07:52:06;;;;;;;6.42;3.83;;;;;;;22.57;51.71;98980.77;1777887;78;21006;-76
2021/06/10 07:54:32;;;;;;;7.03;3.95;;;;;;;22.61;53.04;98973.77;1771978;80;21290;-76
2021/06/10 07:56:59;;;;;;;7.28;3.83;;;;;;;22.64;51.28;98974.02;1782226;78;20979;-76
2021/06/10 07:59:26;;;;;;;10.50;4.05;;;;;;;22.60;52.57;98962.83;1781191;80;20999;-78
2021/06/10 08:01:54;;;;;;;7.12;4.15;;;;;;;22.70;52.59;98966.94;1784966;78;21090;-76
2021/06/10 08:04:21;;;;;;;7.22;3.50;;;;;;;22.87;53.35;98970.08;1778640;78;21042;-77
2021/06/10 08:06:48;;;;;;;9.25;3.95;;;;;;;23.02;51.87;98959.64;1781151;78;21057;-77
2021/06/10 08:09:15;;;;;;;13.55;7.03;;;;;;;23.12;51.71;98966.36;1780003;80;21001;-77
2021/06/10 08:11:43;;;;;;;10.35;6.08;;;;;;;23.22;51.90;98960.23;1772157;80;21556;-78
2021/06/10 08:14:10;;;;;;;8.20;3.75;;;;;;;23.26;51.85;98948.89;1776898;78;21014;-78
2021/06/10 08:16:37;;;;;;;9.43;2.98;;;;;;;23.46;50.73;98961.88;1783477;80;21002;-77
2021/06/10 08:19:04;;;;;;;9.98;4.00;;;;;;;23.60;50.21;98959.44;1776659;78;20960;-78
2021/06/10 08:21:31;;;;;;;7.40;4.12;;;;;;;23.72;50.47;98958.92;1773524;78;21121;-78
2021/06/10 08:23:58;;;;;;;5.72;3.37;;;;;;;23.84;50.66;98959.77;1785038;80;22065;-77
2021/06/10 08:26:25;;;;;;;6.80;3.22;;;;;;;23.98;50.17;98954.98;1769285;80;21128;-77
2021/06/10 08:28:52;;;;;;;6.50;3.08;;;;;;;24.10;48.66;98965.57;1781580;80;21004;-77
2021/06/10 08:31:18;;;;;;;5.58;3.25;;;;;;;24.18;46.59;98963.12;1779937;78;20996;-77
2021/06/10 08:33:45;;;;;;;5.47;3.00;;;;;;;24.27;48.17;98958.34;1780503;78;21010;-77
2021/06/10 08:36:11;;;;;;;8.45;3.55;;;;;;;24.35;43.41;98957.70;1764753;80;20991;-77
2021/06/10 08:38:38;;;;;;;5.42;3.20;;;;;;;24.50;47.11;98955.58;1782555;78;20986;-77
2021/06/10 08:41:06;;;;;;;6.92;3.27;;;;;;;24.70;45.69;98964.03;1773376;78;21003;-77
2021/06/10 08:43:33;;;;;;;5.58;2.90;;;;;;;24.71;44.66;98964.41;1780814;78;21011;-77
2021/06/10 08:46:07;;;;;;;5.97;3.00;;;;;;;24.82;45.01;98960.81;1774303;80;20995;-77
2021/06/10 08:48:40;;;;;;;5.37;2.85;;;;;;;24.97;41.99;98961.31;1777409;80;21034;-78
2021/06/10 08:51:09;;;;;;;8.20;3.33;;;;;;;25.02;43.33;98963.06;1776806;78;21012;-77
2021/06/10 08:53:36;;;;;;;8.58;3.35;;;;;;;25.02;43.33;98963.06;1777840;80;21042;-78
2021/06/10 08:56:04;;;;;;;5.67;2.72;;;;;;;24.99;40.75;98956.21;1776100;80;21011;-77
2021/06/10 08:58:33;;;;;;;7.50;3.17;;;;;;;25.15;40.05;98966.34;1769119;78;21586;-77
2021/06/10 09:01:01;;;;;;;4.58;2.92;;;;;;;25.25;41.86;98960.23;1779988;80;20962;-77
2021/06/10 09:03:32;;;;;;;4.05;2.80;;;;;;;25.31;41.96;98950.41;1779283;78;20987;-76
2021/06/10 09:06:16;;;;;;;4.08;2.72;;;;;;;25.46;40.27;98961.00;1777952;78;21037;-77
2021/06/10 09:08:47;;;;;;;5.92;2.70;;;;;;;25.48;38.97;98960.87;1772767;78;21621;-76
2021/06/10 09:11:22;;;;;;;6.53;3.08;;;;;;;25.62;40.73;98959.13;1774945;80;21498;-78
2021/06/10 09:13:56;;;;;;;5.60;3.10;;;;;;;25.70;41.15;98957.12;1772383;78;21352;-77
2021/06/10 09:16:36;;;;;;;5.08;2.58;;;;;;;25.93;41.37;98960.41;1774358;80;21003;-76
2021/06/10 09:19:17;;;;;;;4.58;2.83;;;;;;;25.93;40.36;98957.24;1776368;78;22203;-78
2021/06/10 09:21:46;;;;;;;4.55;3.05;;;;;;;26.07;40.79;98951.98;1783040;78;21043;-77
2021/06/10 09:24:32;;;;;;;4.12;2.70;;;;;;;26.18;38.09;98953.19;1769410;78;21064;-78
2021/06/10 09:27:09;;;;;;;10.38;6.58;;;;;;;26.33;38.58;98952.23;1764074;80;20979;-77
2021/06/10 09:29:45;;;;;;;5.17;3.22;;;;;;;26.48;39.91;98951.78;1786295;78;21007;-78
2021/06/10 09:32:23;;;;;;;4.53;2.67;;;;;;;26.66;39.56;98947.45;1783109;78;20990;-77
2021/06/10 09:34:57;;;;;;;6.22;3.10;;;;;;;26.86;39.74;98954.02;1781508;80;21585;-78
2021/06/10 09:37:35;;;;;;;5.92;2.62;;;;;;;26.93;39.06;98955.13;1782246;78;21158;-78
2021/06/10 09:40:10;;;;;;;5.15;2.50;;;;;;;27.08;38.95;98948.80;1766430;79;21400;-75
2021/06/10 09:42:40;;;;;;;6.35;3.08;;;;;;;27.27;38.02;98946.08;1772769;79;20967;-75
2021/06/10 09:45:09;;;;;;;7.12;2.60;;;;;;;27.22;38.08;98945.67;1779325;78;20987;-74
2021/06/10 09:47:45;;;;;;;6.15;3.05;;;;;;;27.35;37.53;98934.66;1743459;80;21065;-78
2021/06/10 09:50:26;;;;;;;6.40;2.90;;;;;;;27.41;36.13;98936.73;1780443;79;21018;-78
2021/06/10 09:53:02;;;;;;;10.13;3.55;;;;;;;27.48;36.34;98936.98;1774559;80;20999;-76
2021/06/10 09:55:45;;;;;;;7.50;3.67;;;;;;;27.70;37.23;98922.36;1750467;79;21015;-78
2021/06/10 09:58:21;;;;;;;6.12;3.00;;;;;;;28.10;37.35;98921.06;1771624;79;21289;-76
2021/06/10 10:00:52;;;;;;;9.48;2.90;;;;;;;28.40;36.36;98923.78;1772091;79;21519;-79
2021/06/10 10:03:32;;;;;;;6.40;2.70;;;;;;;28.67;36.25;98917.95;1780955;79;22140;-78
2021/06/10 10:06:06;;;;;;;5.17;2.90;;;;;;;28.85;35.64;98904.50;1776158;78;22249;-79
2021/06/10 10:08:34;;;;;;;6.85;3.75;;;;;;;29.04;35.92;98900.23;1781103;79;20960;-83
2021/06/10 10:11:04;;;;;;;9.63;4.33;;;;;;;29.05;34.38;98899.25;1778741;78;21086;-80
2021/06/10 10:13:32;;;;;;;6.97;3.17;;;;;;;28.93;34.33;98897.37;1757363;80;21052;-80
2021/06/10 10:16:02;;;;;;;5.50;3.00;;;;;;;28.85;34.86;98891.13;1768849;79;21047;-81
2021/06/10 10:18:28;;;;;;;5.65;2.87;;;;;;;28.87;34.98;98887.78;1781861;79;21004;-81
2021/06/10 10:21:01;;;;;;;6.17;2.62;;;;;;;28.90;33.49;98887.48;1781447;79;21003;-79
2021/06/10 10:23:28;;;;;;;6.00;2.90;;;;;;;28.86;33.97;98906.19;1778763;78;20967;-78
2021/06/10 10:26:05;;;;;;;5.55;3.52;;;;;;;29.02;33.41;98902.75;1779878;79;21089;-81
2021/06/10 10:28:35;;;;;;;6.10;3.12;;;;;;;29.15;33.98;98913.38;1769680;79;20991;-80
2021/06/10 10:31:09;;;;;;;5.67;2.90;;;;;;;29.37;33.67;98892.35;1775277;79;21534;-80
2021/06/10 10:33:51;;;;;;;7.08;2.83;;;;;;;29.42;34.23;98896.70;1779027;79;21042;-80
2021/06/10 10:36:31;;;;;;;5.12;2.75;;;;;;;29.51;34.15;98894.89;1774813;79;21079;-81
2021/06/10 10:39:08;;;;;;;8.18;3.50;;;;;;;29.83;33.95;98892.77;1770454;79;21084;-80
2021/06/10 10:41:53;;;;;;;4.83;2.80;;;;;;;29.94;32.97;98899.16;1706391;82;20995;-80
2021/06/10 10:44:26;;;;;;;8.53;2.70;;;;;;;29.84;32.31;98905.15;1728642;80;20996;-85
2021/06/10 10:47:03;;;;;;;22.52;4.50;;;;;;;29.58;32.93;98903.09;1727081;82;21002;-79
2021/06/10 10:49:43;;;;;;;18.30;3.60;;;;;;;29.40;32.88;98902.72;1733764;81;21039;-79
2021/06/10 10:52:24;;;;;;;6.97;3.20;;;;;;;29.16;32.88;98899.48;1731103;82;21019;-79
2021/06/10 10:54:51;;;;;;;7.30;3.08;;;;;;;28.79;32.41;98889.09;1701487;82;21031;-84
2021/06/10 10:57:38;;;;;;;7.08;2.77;;;;;;;28.50;33.37;98888.45;1693407;84;21034;-84
2021/06/10 11:00:08;;;;;;;4.50;2.90;;;;;;;28.20;32.29;98874.20;1711198;82;21043;-85
2021/06/10 11:02:41;;;;;;;5.80;2.98;;;;;;;27.96;33.57;98883.72;1715910;82;21130;-81
2021/06/10 11:05:09;;;;;;;7.17;3.00;;;;;;;27.59;33.78;98876.67;1740202;80;21603;-81
2021/06/10 11:07:41;;;;;;;5.97;3.02;;;;;;;27.41;33.89;98871.33;1715803;82;21035;-78
2021/06/10 11:10:15;;;;;;;11.65;2.95;;;;;;;27.22;34.39;98855.41;1719077;81;21125;-81
2021/06/10 11:12:52;;;;;;;8.35;3.42;;;;;;;27.06;34.49;98848.93;1729428;82;22189;-80
2021/06/10 11:15:31;;;;;;;9.45;3.75;;;;;;;26.78;36.26;98862.27;1720745;81;21026;-79
2021/06/10 11:18:07;;;;;;;7.30;3.25;;;;;;;26.36;38.01;98859.16;1726192;81;21559;-80
2021/06/10 11:20:40;;;;;;;9.40;3.35;;;;;;;25.74;39.62;98852.02;1690176;82;21593;-79
2021/06/10 11:23:26;;;;;;;8.05;3.08;;;;;;;25.38;41.13;98856.56;1713590;82;21018;-71
2021/06/10 11:25:54;;;;;;;7.20;3.52;;;;;;;24.99;43.08;98857.81;1777441;80;21045;-87
2021/06/10 11:28:29;;;;;;;10.20;3.60;;;;;;;24.57;43.87;98865.92;1730929;82;21013;-85
2021/06/10 11:31:20;;;;;;;8.28;3.83;;;;;;;24.10;46.62;98875.28;1715392;82;21879;-86
2021/06/10 11:33:53;;;;;;;7.00;3.33;;;;;;;23.78;46.42;98867.72;1705432;83;21094;-73
2021/06/10 11:36:17;;;;;;;7.03;3.33;;;;;;;23.55;46.87;98864.27;1693603;83;21037;-81
2021/06/10 11:38:48;;;;;;;7.05;3.45;;;;;;;23.49;47.25;98852.84;1722334;82;21123;-73
2021/06/10 11:41:22;;;;;;;7.65;3.27;;;;;;;23.38;47.65;98856.39;1729751;81;21078;-73
2021/06/10 11:43:55;;;;;;;9.28;3.27;;;;;;;23.35;48.38;98853.14;1721744;81;21014;-79
2021/06/10 11:46:38;;;;;;;8.85;4.20;;;;;;;23.22;48.69;98861.27;1712759;83;21515;-72
2021/06/10 11:49:04;;;;;;;5.55;3.25;;;;;;;23.13;49.66;98848.25;1707004;82;21035;-73
2021/06/10 11:51:37;;;;;;;10.82;3.52;;;;;;;22.98;48.02;98857.44;1719258;81;21361;-75
2021/06/10 11:54:12;;;;;;;5.97;3.52;;;;;;;22.97;48.11;98845.13;1705113;82;21058;-77
2021/06/10 11:56:41;;;;;;;10.88;3.47;;;;;;;23.00;47.93;98851.52;1742184;81;21092;-77
2021/06/10 11:59:22;;;;;;;6.58;3.15;;;;;;;22.98;49.22;98846.34;1745709;82;20999;-81
2021/06/10 12:02:11;;;;;;;4.97;3.10;;;;;;;23.00;48.17;98844.90;1742065;81;21145;-82
2021/06/10 12:04:41;;;;;;;7.05;3.10;;;;;;;23.17;48.03;98843.55;1738035;80;21137;-81
2021/06/10 12:07:16;;;;;;;5.08;2.83;;;;;;;23.27;45.93;98851.60;1732528;82;21314;-84
2021/06/10 12:09:51;;;;;;;6.45;3.10;;;;;;;23.39;46.10;98847.45;1728667;81;21014;-82
2021/06/10 12:12:42;;;;;;;6.05;2.67;;;;;;;23.60;46.19;98850.16;1720627;83;21051;-81